createdAt,value
2018-09-20T00:00:36.355Z,12.30
2018-09-20T00:03:04.849Z,13.93
2018-09-20T00:05:33.313Z,13.87
2018-09-20T00:08:01.798Z,15.00
2018-09-20T00:10:30.319Z,12.63
2018-09-20T00:12:58.909Z,12.20
2018-09-20T00:15:27.354Z,12.73
2018-09-20T00:17:55.848Z,13.50
2018-09-20T00:20:24.286Z,13.23
2018-09-20T00:22:52.814Z,12.00
2018-09-20T00:25:21.227Z,13.50
2018-09-20T00:27:49.779Z,13.47
2018-09-20T00:30:18.403Z,12.57
2018-09-20T00:32:46.841Z,12.80
2018-09-20T00:35:15.404Z,13.47
2018-09-20T00:37:43.880Z,13.17
2018-09-20T00:40:12.398Z,12.43
2018-09-20T00:42:40.866Z,12.00
2018-09-20T00:45:09.373Z,12.07
2018-09-20T00:47:37.823Z,13.23
2018-09-20T00:50:06.461Z,12.70
2018-09-20T00:52:34.974Z,12.20
2018-09-20T00:55:03.491Z,12.00
2018-09-20T00:57:31.993Z,11.70
2018-09-20T01:00:00.502Z,13.17
2018-09-20T01:02:28.878Z,13.30
2018-09-20T01:04:57.283Z,13.17
2018-09-20T01:07:25.688Z,12.23
2018-09-20T01:09:54.250Z,12.10
2018-09-20T01:12:22.670Z,12.07
2018-09-20T01:14:51.223Z,12.10
2018-09-20T01:17:19.647Z,12.40
2018-09-20T01:19:48.160Z,10.80
2018-09-20T01:22:16.647Z,12.10
2018-09-20T01:24:45.041Z,11.10
2018-09-20T01:27:13.518Z,11.63
2018-09-20T01:29:42.038Z,12.90
2018-09-20T01:32:10.540Z,11.87
2018-09-20T01:34:38.873Z,12.30
2018-09-20T01:37:07.316Z,13.30
2018-09-20T01:39:35.753Z,12.50
2018-09-20T01:42:04.244Z,14.70
2018-09-20T01:44:32.766Z,13.47
2018-09-20T01:47:01.259Z,12.37
2018-09-20T01:49:29.679Z,13.13
2018-09-20T01:51:58.097Z,13.47
2018-09-20T01:54:26.534Z,13.33
2018-09-20T01:56:55.052Z,14.00
2018-09-20T01:59:23.420Z,13.77
2018-09-20T02:01:51.886Z,13.20
2018-09-20T02:04:20.506Z,13.40
2018-09-20T02:06:48.982Z,12.57
2018-09-20T02:09:17.458Z,13.87
2018-09-20T02:11:45.905Z,13.60
2018-09-20T02:14:14.419Z,14.63
2018-09-20T02:16:42.877Z,13.47
2018-09-20T02:19:11.383Z,14.27
2018-09-20T02:21:39.872Z,12.70
2018-09-20T02:24:08.443Z,12.70
2018-09-20T02:26:36.898Z,14.27
2018-09-20T02:29:05.427Z,13.87
2018-09-20T02:31:33.924Z,11.70
2018-09-20T02:34:02.478Z,13.20
2018-09-20T02:36:30.881Z,12.90
2018-09-20T02:38:59.668Z,11.80
2018-09-20T02:41:28.186Z,12.50
2018-09-20T02:43:56.593Z,11.97
2018-09-20T02:46:25.036Z,11.77
2018-09-20T02:48:53.515Z,12.17
2018-09-20T02:51:21.952Z,11.10
2018-09-20T02:53:50.412Z,13.33
2018-09-20T02:56:18.850Z,11.13
2018-09-20T02:58:47.339Z,11.90
2018-09-20T03:01:15.735Z,12.00
2018-09-20T03:03:44.252Z,12.10
2018-09-20T03:06:12.907Z,10.97
2018-09-20T03:08:41.311Z,11.40
2018-09-20T03:11:09.706Z,11.00
2018-09-20T03:13:38.159Z,10.63
2018-09-20T03:16:36.843Z,11.07
2018-09-20T03:19:05.746Z,10.67
2018-09-20T03:21:34.143Z,12.50
2018-09-20T03:24:02.627Z,11.90
2018-09-20T03:26:31.157Z,11.90
2018-09-20T03:28:59.552Z,12.17
2018-09-20T03:31:27.980Z,11.70
2018-09-20T03:33:56.529Z,13.00
2018-09-20T03:36:24.946Z,13.73
2018-09-20T03:38:53.345Z,12.87
2018-09-20T03:41:21.742Z,12.17
2018-09-20T03:43:50.152Z,12.10
2018-09-20T03:46:18.609Z,13.60
2018-09-20T03:48:47.163Z,14.90
2018-09-20T03:51:15.633Z,14.60
2018-09-20T03:53:44.169Z,15.00
2018-09-20T03:56:12.616Z,14.10
2018-09-20T03:58:41.110Z,14.50
2018-09-20T04:01:09.536Z,12.67
2018-09-20T04:03:38.057Z,14.90
2018-09-20T04:06:06.768Z,13.80
2018-09-20T04:08:35.235Z,14.30
2018-09-20T04:11:03.595Z,14.23
2018-09-20T04:13:32.069Z,13.60
2018-09-20T04:16:00.434Z,14.47
2018-09-20T04:18:28.970Z,13.60
2018-09-20T04:20:57.372Z,13.80
2018-09-20T04:23:25.805Z,13.13
2018-09-20T04:25:54.210Z,13.13
2018-09-20T04:28:22.643Z,13.17
2018-09-20T04:30:51.136Z,12.70
2018-09-20T04:33:19.608Z,11.17
2018-09-20T04:35:48.110Z,11.70
2018-09-20T04:38:16.500Z,12.60
2018-09-20T04:40:45.030Z,12.80
2018-09-20T04:43:13.574Z,12.40
2018-09-20T04:45:42.119Z,12.37
2018-09-20T04:48:10.617Z,13.73
2018-09-20T04:50:39.105Z,12.67
2018-09-20T04:53:07.747Z,14.10
2018-09-20T04:55:36.131Z,12.63
2018-09-20T04:58:04.690Z,13.30
2018-09-20T05:00:33.135Z,13.90
2018-09-20T05:03:01.548Z,14.67
2018-09-20T05:05:30.034Z,12.27
2018-09-20T05:07:58.407Z,12.63
2018-09-20T05:10:27.034Z,12.87
2018-09-20T05:12:55.560Z,12.33
2018-09-20T05:15:24.414Z,13.50
2018-09-20T05:17:52.871Z,12.87
2018-09-20T05:20:21.252Z,13.80
2018-09-20T05:22:49.725Z,15.00
2018-09-20T05:25:18.227Z,13.30
2018-09-20T05:27:46.746Z,13.43
2018-09-20T05:30:15.295Z,14.53
2018-09-20T05:32:43.760Z,14.50
2018-09-20T05:35:12.220Z,14.87
2018-09-20T05:37:40.645Z,13.80
2018-09-20T05:40:09.187Z,14.70
2018-09-20T05:42:37.569Z,14.20
2018-09-20T05:45:06.616Z,15.43
2018-09-20T05:47:35.103Z,13.60
2018-09-20T05:50:03.695Z,13.40
2018-09-20T05:52:32.199Z,14.47
2018-09-20T05:55:00.717Z,14.47
2018-09-20T05:57:29.097Z,14.57
2018-09-20T05:59:57.498Z,14.30
2018-09-20T06:02:26.683Z,14.67
2018-09-20T06:04:55.409Z,14.67
2018-09-20T06:07:23.816Z,14.60
2018-09-20T06:09:52.288Z,15.50
2018-09-20T06:12:20.773Z,15.40
2018-09-20T06:14:49.250Z,14.73
2018-09-20T06:17:17.677Z,15.10
2018-09-20T06:19:46.115Z,16.37
2018-09-20T06:22:14.477Z,15.70
2018-09-20T06:24:42.981Z,14.40
2018-09-20T06:27:11.672Z,14.77
2018-09-20T06:29:40.063Z,15.20
2018-09-20T06:32:08.614Z,14.63
2018-09-20T06:34:37.194Z,14.87
2018-09-20T06:37:06.003Z,15.77
2018-09-20T06:39:34.415Z,16.40
2018-09-20T06:42:02.942Z,13.87
2018-09-20T06:44:31.409Z,16.83
2018-09-20T06:46:59.823Z,14.60
2018-09-20T06:49:28.314Z,14.67
2018-09-20T06:51:56.676Z,15.13
2018-09-20T06:54:25.110Z,16.33
2018-09-20T06:56:53.555Z,14.63
2018-09-20T06:59:22.946Z,13.63
2018-09-20T07:01:51.433Z,12.60
2018-09-20T07:04:19.875Z,14.03
2018-09-20T07:06:48.284Z,13.00
2018-09-20T07:09:16.698Z,13.17
2018-09-20T07:11:45.109Z,13.10
2018-09-20T07:14:13.480Z,12.13
2018-09-20T07:16:41.922Z,13.73
2018-09-20T07:19:10.334Z,12.80
2018-09-20T07:21:38.701Z,12.80
2018-09-20T07:24:07.181Z,12.10
2018-09-20T07:26:35.554Z,12.70
2018-09-20T07:29:04.061Z,11.60
2018-09-20T07:31:32.480Z,12.40
2018-09-20T07:34:01.257Z,12.50
2018-09-20T07:36:29.987Z,13.30
2018-09-20T07:38:58.408Z,12.37
2018-09-20T07:41:26.807Z,11.97
2018-09-20T07:43:55.226Z,13.20
2018-09-20T07:46:23.637Z,11.90
2018-09-20T07:48:52.085Z,12.97
2018-09-20T07:51:20.630Z,12.60
2018-09-20T07:53:49.060Z,11.00
2018-09-20T07:56:17.544Z,12.30
2018-09-20T07:58:45.958Z,12.13
2018-09-20T08:01:14.436Z,11.57
2018-09-20T08:03:42.841Z,12.23
2018-09-20T08:06:11.243Z,12.00
2018-09-20T08:08:39.711Z,11.20
2018-09-20T08:11:08.242Z,11.10
2018-09-20T08:13:36.650Z,10.53
2018-09-20T08:16:05.104Z,8.93
2018-09-20T08:18:33.545Z,9.80
2018-09-20T08:21:02.044Z,10.90
2018-09-20T08:23:30.471Z,9.60
2018-09-20T08:25:59.222Z,10.47
2018-09-20T08:28:27.623Z,9.47
2018-09-20T08:30:56.154Z,9.30
2018-09-20T08:33:24.534Z,9.77
2018-09-20T08:35:53.031Z,9.87
2018-09-20T08:38:21.411Z,9.57
2018-09-20T08:40:49.922Z,10.80
2018-09-20T08:43:18.265Z,9.40
2018-09-20T08:45:46.683Z,9.77
2018-09-20T08:48:15.204Z,10.57
2018-09-20T08:50:43.639Z,9.00
2018-09-20T08:53:12.194Z,10.07
2018-09-20T08:55:40.651Z,8.80
2018-09-20T08:58:09.019Z,8.80
2018-09-20T09:00:37.577Z,8.50
2018-09-20T09:03:06.054Z,8.60
2018-09-20T09:05:34.582Z,8.47
2018-09-20T09:08:03.056Z,8.70
2018-09-20T09:10:31.521Z,7.50
2018-09-20T09:12:59.942Z,7.70
2018-09-20T09:15:28.395Z,7.60
2018-09-20T09:17:56.803Z,7.70
2018-09-20T09:20:25.538Z,6.90
2018-09-20T09:22:53.993Z,7.93
2018-09-20T09:25:22.404Z,7.90
2018-09-20T09:27:50.934Z,8.30
2018-09-20T09:30:19.392Z,8.10
2018-09-20T09:32:47.819Z,8.53
2018-09-20T09:35:16.227Z,9.00
2018-09-20T09:37:44.590Z,7.60
2018-09-20T09:40:13.109Z,7.70
2018-09-20T09:42:41.419Z,8.00
2018-09-20T09:45:09.815Z,7.63
2018-09-20T09:47:38.291Z,7.20
2018-09-20T09:50:06.920Z,8.23
2018-09-20T09:52:35.302Z,7.50
2018-09-20T09:55:04.199Z,6.40
2018-09-20T09:57:32.576Z,6.90
2018-09-20T10:00:01.063Z,6.20
2018-09-20T10:02:29.580Z,6.27
2018-09-20T10:04:57.981Z,6.30
2018-09-20T10:07:26.491Z,7.17
2018-09-20T10:09:54.910Z,6.93
2018-09-20T10:12:23.388Z,5.50
2018-09-20T10:14:51.942Z,6.70
2018-09-20T10:17:20.329Z,6.53
2018-09-20T10:19:48.762Z,6.97
2018-09-20T10:22:17.186Z,7.03
2018-09-20T10:24:45.706Z,5.87
2018-09-20T10:27:14.210Z,6.00
2018-09-20T10:29:42.684Z,6.20
2018-09-20T10:32:11.138Z,6.07
2018-09-20T10:34:39.580Z,6.63
2018-09-20T10:37:07.977Z,6.10
2018-09-20T10:39:36.454Z,6.87
2018-09-20T10:42:04.969Z,6.43
2018-09-20T10:44:33.351Z,6.27
2018-09-20T10:47:01.777Z,6.10
2018-09-20T10:49:30.148Z,6.40
2018-09-20T10:51:58.569Z,5.80
2018-09-20T10:54:27.050Z,6.57
2018-09-20T10:56:55.506Z,5.73
2018-09-20T10:59:23.889Z,5.70
2018-09-20T11:01:52.326Z,5.90
2018-09-20T11:04:20.849Z,6.10
2018-09-20T11:06:49.389Z,6.30
2018-09-20T11:09:18.669Z,5.30
2018-09-20T11:11:47.071Z,5.80
2018-09-20T11:14:16.417Z,6.20
2018-09-20T11:16:46.091Z,5.87
2018-09-20T11:19:15.709Z,5.70
2018-09-20T11:21:44.139Z,5.80
2018-09-20T11:24:12.631Z,6.30
2018-09-20T11:26:41.153Z,6.63
2018-09-20T11:29:09.613Z,6.90
2018-09-20T11:31:38.133Z,6.00
2018-09-20T11:34:06.746Z,6.63
2018-09-20T11:36:35.248Z,6.60
2018-09-20T11:39:04.592Z,6.73
2018-09-20T11:41:33.077Z,7.27
2018-09-20T11:44:01.502Z,6.90
2018-09-20T11:46:29.872Z,6.90
2018-09-20T11:48:58.287Z,6.80
2018-09-20T11:51:26.676Z,6.57
2018-09-20T11:53:55.077Z,6.07
2018-09-20T11:56:23.720Z,5.93
2018-09-20T11:58:52.117Z,5.70
2018-09-20T12:01:20.604Z,6.80
2018-09-20T12:03:48.978Z,5.60
2018-09-20T12:06:24.099Z,6.10
2018-09-20T12:08:52.506Z,6.33
2018-09-20T12:11:20.902Z,5.53
2018-09-20T12:13:49.311Z,6.20
2018-09-20T12:16:17.802Z,6.33
2018-09-20T12:18:46.335Z,6.67
2018-09-20T12:21:14.693Z,5.60
2018-09-20T12:23:43.178Z,6.93
2018-09-20T12:26:11.644Z,5.97
2018-09-20T12:28:40.063Z,5.47
2018-09-20T12:31:08.506Z,6.20
2018-09-20T12:33:36.878Z,6.10
2018-09-20T12:36:05.371Z,5.67
2018-09-20T12:38:33.816Z,6.43
2018-09-20T12:41:02.212Z,6.17
2018-09-20T12:43:30.728Z,5.60
2018-09-20T12:45:59.301Z,5.10
2018-09-20T12:48:27.815Z,6.00
2018-09-20T12:50:56.223Z,6.10
2018-09-20T12:53:24.579Z,5.93
2018-09-20T12:55:53.031Z,6.07
2018-09-20T12:58:25.690Z,5.10
2018-09-20T13:00:54.094Z,6.40
2018-09-20T13:03:22.443Z,6.67
2018-09-20T13:05:50.869Z,5.10
2018-09-20T13:08:19.428Z,6.00
2018-09-20T13:10:47.831Z,6.50
2018-09-20T13:13:16.203Z,5.17
2018-09-20T13:15:44.777Z,5.67
2018-09-20T13:18:13.278Z,5.90
2018-09-20T13:20:41.745Z,5.30
2018-09-20T13:23:10.907Z,6.27
2018-09-20T13:25:39.344Z,4.97
2018-09-20T13:28:08.021Z,5.30
2018-09-20T13:30:36.516Z,6.47
2018-09-20T13:33:04.926Z,6.97
2018-09-20T13:35:33.574Z,6.37
2018-09-20T13:38:02.088Z,7.03
2018-09-20T13:40:30.512Z,6.10
2018-09-20T13:42:58.921Z,5.80
2018-09-20T13:45:27.333Z,5.43
2018-09-20T13:47:55.692Z,6.53
2018-09-20T13:50:24.117Z,5.97
2018-09-20T13:52:52.496Z,5.53
2018-09-20T13:55:21.001Z,6.20
2018-09-20T13:57:49.370Z,4.80
2018-09-20T14:00:17.778Z,5.57
2018-09-20T14:02:46.163Z,6.13
2018-09-20T14:05:14.734Z,4.93
2018-09-20T14:07:43.223Z,5.50
2018-09-20T14:10:11.642Z,5.80
2018-09-20T14:12:40.141Z,4.80
2018-09-20T14:15:08.662Z,4.70
2018-09-20T14:17:37.455Z,5.10
2018-09-20T14:20:06.275Z,4.70
2018-09-20T14:22:34.634Z,5.83
2018-09-20T14:25:03.164Z,5.10
2018-09-20T14:27:31.689Z,6.03
2018-09-20T14:30:00.105Z,6.17
2018-09-20T14:32:28.613Z,6.20
2018-09-20T14:34:57.028Z,5.80
2018-09-20T14:37:25.515Z,5.90
2018-09-20T14:39:54.036Z,5.87
2018-09-20T14:42:22.461Z,5.90
2018-09-20T14:44:50.933Z,6.30
2018-09-20T14:47:19.392Z,5.90
2018-09-20T14:49:47.989Z,5.30
2018-09-20T14:52:16.441Z,5.70
2018-09-20T14:54:44.847Z,5.90
2018-09-20T14:57:13.321Z,5.17
2018-09-20T14:59:41.677Z,5.87
2018-09-20T15:02:10.070Z,5.57
2018-09-20T15:04:38.466Z,5.30
2018-09-20T15:07:07.007Z,5.00
2018-09-20T15:09:35.445Z,4.50
2018-09-20T15:12:03.902Z,4.23
2018-09-20T15:14:32.383Z,4.33
2018-09-20T15:17:00.792Z,4.17
2018-09-20T15:19:29.315Z,4.43
2018-09-20T15:21:57.807Z,4.77
2018-09-20T15:24:26.207Z,4.83
2018-09-20T15:26:54.878Z,3.87
2018-09-20T15:29:23.459Z,4.50
2018-09-20T15:31:52.524Z,4.23
2018-09-20T15:34:20.934Z,3.90
2018-09-20T15:36:49.371Z,4.60
2018-09-20T15:39:18.023Z,4.37
2018-09-20T15:41:46.408Z,4.97
2018-09-20T15:44:14.827Z,4.30
2018-09-20T15:46:43.343Z,4.40
2018-09-20T15:49:11.998Z,4.50
2018-09-20T15:51:40.523Z,5.53
2018-09-20T15:54:08.937Z,4.60
2018-09-20T15:56:37.375Z,4.93
2018-09-20T15:59:06.051Z,4.17
2018-09-20T16:01:34.666Z,4.90
2018-09-20T16:04:03.061Z,4.70
2018-09-20T16:06:31.510Z,5.03
2018-09-20T16:09:00.045Z,4.90
2018-09-20T16:11:28.594Z,5.00
2018-09-20T16:13:57.052Z,4.57
2018-09-20T16:16:25.496Z,5.57
2018-09-20T16:18:53.998Z,5.10
2018-09-20T16:21:22.513Z,5.07
2018-09-20T16:23:50.899Z,5.10
2018-09-20T16:26:19.410Z,4.40
2018-09-20T16:29:01.130Z,6.10
2018-09-20T16:31:51.935Z,4.67
2018-09-20T16:35:02.594Z,5.13
2018-09-20T16:38:44.437Z,5.57
2018-09-20T16:41:16.069Z,5.77
2018-09-20T16:43:44.614Z,5.50
2018-09-20T16:46:13.120Z,5.63
2018-09-20T16:48:41.735Z,6.00
2018-09-20T16:51:10.302Z,7.33
2018-09-20T16:53:38.776Z,6.73
2018-09-20T16:56:07.985Z,5.70
2018-09-20T16:58:36.343Z,5.13
2018-09-20T17:01:04.962Z,6.23
2018-09-20T17:03:33.403Z,5.37
2018-09-20T17:06:01.898Z,5.10
2018-09-20T17:08:30.445Z,5.90
2018-09-20T17:10:58.942Z,5.37
2018-09-20T17:13:27.531Z,6.13
2018-09-20T17:15:55.984Z,6.23
2018-09-20T17:18:24.447Z,5.70
2018-09-20T17:20:52.867Z,5.40
2018-09-20T17:23:21.444Z,6.20
2018-09-20T17:25:49.838Z,5.73
2018-09-20T17:28:18.331Z,5.93
2018-09-20T17:30:46.775Z,6.40
2018-09-20T17:33:15.405Z,5.63
2018-09-20T17:35:44.264Z,6.33
2018-09-20T17:38:13.165Z,5.70
2018-09-20T17:40:44.172Z,6.70
2018-09-20T17:43:15.620Z,5.43
2018-09-20T17:45:44.288Z,5.67
2018-09-20T17:48:12.788Z,5.87
2018-09-20T17:50:41.674Z,5.73
2018-09-20T17:53:10.927Z,5.90
2018-09-20T17:55:40.084Z,5.63
2018-09-20T17:58:09.191Z,6.33
2018-09-20T18:00:37.632Z,7.73
2018-09-20T18:03:06.202Z,12.40
2018-09-20T18:05:35.579Z,7.30
2018-09-20T18:08:04.944Z,7.40
2018-09-20T18:10:34.249Z,6.40
2018-09-20T18:13:03.386Z,7.13
2018-09-20T18:15:32.520Z,7.13
2018-09-20T18:18:01.118Z,8.10
2018-09-20T18:20:30.404Z,6.60
2018-09-20T18:22:59.905Z,6.73
2018-09-20T18:25:29.131Z,7.03
2018-09-20T18:27:58.421Z,6.50
2018-09-20T18:30:28.397Z,6.90
2018-09-20T18:32:56.909Z,8.00
2018-09-20T18:35:26.247Z,7.70
2018-09-20T18:37:56.071Z,7.03
2018-09-20T18:40:24.581Z,6.30
2018-09-20T18:42:53.682Z,7.00
2018-09-20T18:45:22.153Z,8.10
2018-09-20T18:47:50.757Z,6.67
2018-09-20T18:50:19.170Z,7.20
2018-09-20T18:52:47.718Z,7.77
2018-09-20T18:55:16.212Z,7.70
2018-09-20T18:57:44.693Z,8.20
2018-09-20T19:00:13.261Z,8.17
2018-09-20T19:02:41.753Z,7.77
2018-09-20T19:05:10.236Z,8.03
2018-09-20T19:07:38.754Z,7.10
2018-09-20T19:10:07.258Z,8.13
2018-09-20T19:12:35.751Z,8.07
2018-09-20T19:15:04.678Z,6.77
2018-09-20T19:17:33.140Z,7.73
2018-09-20T19:20:01.674Z,7.00
2018-09-20T19:22:30.125Z,7.30
2018-09-20T19:24:58.639Z,7.00
2018-09-20T19:27:27.193Z,8.77
2018-09-20T19:29:55.743Z,8.00
2018-09-20T19:32:24.184Z,7.60
2018-09-20T19:34:52.788Z,8.63
2018-09-20T19:37:21.419Z,7.73
2018-09-20T19:39:50.042Z,7.80
2018-09-20T19:42:18.593Z,7.33
2018-09-20T19:44:47.093Z,8.00
2018-09-20T19:47:15.856Z,8.90
2018-09-20T19:49:44.485Z,7.80
2018-09-20T19:52:13.195Z,7.47
2018-09-20T19:54:41.596Z,7.80
2018-09-20T19:57:10.047Z,8.60
2018-09-20T19:59:38.622Z,7.77
2018-09-20T20:02:07.241Z,8.00
2018-09-20T20:04:35.944Z,7.53
2018-09-20T20:07:04.404Z,8.33
2018-09-20T20:09:33.006Z,8.37
2018-09-20T20:12:01.479Z,7.53
2018-09-20T20:14:29.913Z,6.83
2018-09-20T20:16:58.489Z,7.17
2018-09-20T20:19:27.015Z,8.10
2018-09-20T20:21:55.349Z,8.20
2018-09-20T20:24:23.815Z,8.60
2018-09-20T20:26:52.337Z,7.03
2018-09-20T20:29:20.911Z,8.40
2018-09-20T20:31:49.324Z,8.53
2018-09-20T20:34:17.907Z,8.77
2018-09-20T20:36:46.442Z,9.03
2018-09-20T20:39:14.862Z,8.43
2018-09-20T20:41:43.378Z,8.37
2018-09-20T20:44:11.886Z,9.93
2018-09-20T20:46:40.324Z,9.30
2018-09-20T20:49:08.849Z,9.10
2018-09-20T20:51:37.524Z,9.80
2018-09-20T20:54:06.005Z,8.70
2018-09-20T20:56:34.481Z,9.30
2018-09-20T20:59:03.068Z,9.80
2018-09-20T21:01:31.439Z,9.30
2018-09-20T21:03:59.851Z,9.30
2018-09-20T21:06:28.287Z,10.10
2018-09-20T21:08:56.771Z,9.27
2018-09-20T21:11:25.215Z,8.60
2018-09-20T21:13:53.826Z,9.83
2018-09-20T21:16:22.339Z,11.00
2018-09-20T21:18:50.783Z,11.00
2018-09-20T21:21:19.193Z,10.50
2018-09-20T21:23:47.793Z,10.10
2018-09-20T21:26:16.302Z,11.60
2018-09-20T21:28:44.770Z,10.73
2018-09-20T21:31:13.329Z,8.57
2018-09-20T21:33:41.755Z,9.83
2018-09-20T21:36:10.150Z,10.40
2018-09-20T21:38:38.543Z,10.00
2018-09-20T21:41:06.968Z,10.80
2018-09-20T21:43:35.454Z,9.70
2018-09-20T21:46:04.084Z,11.10
2018-09-20T21:48:32.690Z,10.50
2018-09-20T21:51:01.139Z,11.13
2018-09-20T21:53:29.539Z,9.33
2018-09-20T21:55:57.945Z,8.97
2018-09-20T21:58:26.374Z,10.10
2018-09-20T22:01:00.148Z,9.00
2018-09-20T22:03:28.620Z,10.17
2018-09-20T22:05:57.142Z,10.30
2018-09-20T22:08:25.590Z,11.40
2018-09-20T22:10:54.115Z,9.40
2018-09-20T22:13:22.546Z,9.80
2018-09-20T22:15:50.927Z,10.17
2018-09-20T22:18:19.358Z,9.93
2018-09-20T22:20:47.826Z,9.30
2018-09-20T22:23:16.338Z,10.20
2018-09-20T22:25:44.770Z,10.57
2018-09-20T22:28:13.212Z,9.57
2018-09-20T22:30:41.709Z,10.83
2018-09-20T22:33:10.141Z,10.93
2018-09-20T22:35:38.539Z,12.17
2018-09-20T22:38:06.982Z,11.50
2018-09-20T22:40:35.470Z,10.27
2018-09-20T22:43:03.990Z,11.77
2018-09-20T22:45:32.450Z,11.50
2018-09-20T22:48:00.863Z,10.30
2018-09-20T22:50:29.223Z,10.87
2018-09-20T22:52:57.666Z,10.70
2018-09-20T22:55:26.225Z,11.83
2018-09-20T22:57:54.844Z,11.43
2018-09-20T23:00:23.836Z,10.80
2018-09-20T23:02:53.847Z,11.43
2018-09-20T23:05:22.314Z,11.10
2018-09-20T23:07:50.835Z,10.97
2018-09-20T23:10:19.274Z,11.20
2018-09-20T23:12:47.665Z,10.20
2018-09-20T23:15:16.027Z,10.70
2018-09-20T23:17:44.523Z,11.90
2018-09-20T23:20:13.026Z,10.50
2018-09-20T23:22:41.536Z,10.87
2018-09-20T23:25:09.912Z,11.60
2018-09-20T23:27:38.354Z,10.60
2018-09-20T23:30:06.941Z,10.60
2018-09-20T23:32:35.493Z,12.10
2018-09-20T23:35:04.029Z,13.00
2018-09-20T23:37:32.474Z,11.33
2018-09-20T23:40:01.047Z,13.53
2018-09-20T23:42:29.482Z,13.63
2018-09-20T23:44:57.866Z,13.10
2018-09-20T23:47:26.361Z,13.50
2018-09-20T23:49:54.798Z,12.30
2018-09-20T23:52:23.153Z,13.90
2018-09-20T23:54:51.803Z,12.60
2018-09-20T23:57:20.262Z,15.57
2018-09-20T23:59:48.721Z,12.67
